Weather observations for the past three days for
Springfield - Abraham Lincoln Capital Airport
Imperial (Metric)
Date Time (cdt) Wind (mph) Vis. (mi.) Weather Sky Cond. Temperature (ºF) Relative Humidity Wind Chill (°F) Heat Index (°F) Pressure Precipitation (in)
Air Dwpt 6 hour altimeter (in) sea level (mb) 1 hr 3 hr 6 hr
Max. Min.
31 09:52 SW 10 G 20 10.00 Fair CLR 84 63 49% 85 30.02 1015.9
31 08:52 SW 9 10.00 Fair CLR 79 62.1 56% 80 30.02 1015.9
31 07:52 SW 8 10.00 Fair CLR 75 61 62% 77 30.01 1015.7
31 06:52 SW 5 10.00 Fair CLR 73 61 75.9 72 66% 30 1015.4
31 05:52 S 8 10.00 Fair CLR 72 61 68% 29.99 1014.9
31 04:52 S 7 10.00 Fair CLR 73 61 66% 29.98 1014.6
31 03:52 S 7 10.00 Fair CLR 73.9 61 64% 29.98 1014.6
31 02:52 S 7 10.00 Fair CLR 73.9 61 64% 29.98 1014.5
31 01:52 S 7 10.00 Fair CLR 75 61 62% 77 29.99 1014.8
31 00:52 S 9 10.00 Fair CLR 75.9 61 87.1 75 60% 78 29.99 1014.9
30 23:52 S 8 10.00 Fair CLR 77 61 58% 79 29.99 1014.9
30 22:52 S 10 10.00 Fair CLR 80.1 60.1 51% 81 29.99 1015.0
30 21:52 S 9 10.00 Fair CLR 81 60.1 49% 82 29.99 1014.9
30 20:52 S 8 10.00 Fair CLR 82 62.1 51% 83 29.98 1014.8
30 19:52 S 7 10.00 Fair CLR 82 64 55% 84 29.97 1014.4
30 18:52 S 8 10.00 Fair CLR 87.1 63 91.9 87.1 45% 88 29.97 1014.3
30 16:52 S 9 10.00 Fair CLR 91 61 37% 91 29.97 1014.1
30 15:52 SE 10 10.00 Fair CLR 91.9 63 38% 93 29.98 1014.4
30 14:52 S 12 10.00 Fair CLR 91 64 41% 93 29.99 1015.0
30 13:52 S 9 10.00 Fair CLR 90 64 42% 91 30.01 1015.6
30 12:52 S 12 10.00 Fair CLR 89.1 64 89.1 70 43% 90 30.02 1016.1
30 11:52 S 12 G 20 10.00 Fair CLR 87.1 63 45% 88 30.04 1016.6
30 10:52 SW 8 10.00 Fair CLR 82 63 53% 83 30.05 1016.9
30 09:52 SW 12 10.00 Fair CLR 81 63 54% 82 30.02 1016.2
30 08:52 S 9 10.00 Fair CLR 75.9 64 67% 78 30.03 1016.5
30 07:52 S 7 10.00 Fair CLR 71.1 63 76% 30.03 1016.3
30 06:52 S 7 10.00 Fair CLR 71.1 63 73 71.1 76% 30.02 1016.0
30 05:52 S 7 10.00 Fair CLR 71.1 63 76% 30.01 1015.6
30 04:52 S 9 10.00 Fair CLR 72 63 73% 30 1015.5
30 03:52 S 9 10.00 Fair CLR 72 63 73% 30.01 1015.8
30 02:52 S 9 10.00 Fair CLR 73 63 71% 30.02 1016.0
30 01:52 S 7 10.00 Fair CLR 72 63 73% 30.02 1016.2
29 23:52 S 6 10.00 Fair CLR 73.9 63 69% 30.04 1016.5
29 22:52 S 7 10.00 Fair CLR 73 63 71% 30.04 1016.7
29 21:52 S 7 10.00 Fair CLR 73 64 74% 30.04 1016.6
29 20:52 S 5 10.00 Fair CLR 73.9 64 71% 30.04 1016.7
29 19:52 S 6 10.00 Fair CLR 77 63 62% 79 30.02 1016.1
29 18:52 Calm 10.00 Fair CLR 80.1 63 84 80.1 56% 81 30.03 1016.5
29 17:52 S 7 10.00 Fair CLR 81 62.1 53% 82 30.02 1016.1
29 16:52 S 8 10.00 Fair CLR 82.9 63 51% 84 30.05 1017.1
29 15:52 S 6 10.00 Fair CLR 82 62.1 51% 83 30.07 1017.8
29 14:52 S 7 10.00 Fair CLR 82.9 62.1 49% 84 30.09 1018.4
29 13:52 S 6 10.00 Fair CLR 82.9 62.1 49% 84 30.11 1019.3
29 12:52 S 12 G 18 10.00 Fair CLR 82 62.1 82.9 61 51% 83 30.12 1019.4
29 11:52 S 10 10.00 Fair CLR 82 63 53% 83 30.14 1020.2
29 10:52 S 7 10.00 Fair CLR 79 63 58% 81 30.16 1020.8
29 09:52 S 8 10.00 Fair CLR 75.9 62.1 62% 78 30.16 1020.9
29 08:52 S 10 10.00 Fair CLR 73 61 66% 30.15 1020.7
29 07:52 S 3 10.00 Fair CLR 68 63 84% 30.15 1020.8
29 06:52 Calm 10.00 Fair CLR 61 60.1 66 60.1 97% 30.14 1020.3
29 05:52 S 5 10.00 Fair CLR 61 59 93% 30.12 1019.6
29 04:52 S 5 10.00 Fair CLR 60.1 59 96% 30.13 1020.0
29 03:52 Calm 10.00 Fair CLR 61 59 93% 30.13 1019.8
29 02:52 Calm 10.00 Fair CLR 62.1 60.1 93% 30.13 1019.9
29 01:52 Calm 10.00 Fair CLR 63 61 93% 30.13 1019.8
29 00:52 Calm 10.00 Fair CLR 64 63 79 64 96% 30.13 1019.9
28 23:52 Calm 10.00 A Few Clouds FEW060 64.9 63 93% 30.14 1020.2
28 22:52 Calm 10.00 Mostly Cloudy BKN060 66 64.9 96% 30.14 1020.1
28 21:52 Calm 10.00 Fair CLR 66.9 64.9 93% 30.13 1020.0
28 20:52 Calm 10.00 Fair CLR 68 64.9 90% 30.11 1019.3
28 19:52 Calm 10.00 Fair CLR 72 66.9 84% 30.1 1019.0
28 18:52 N 3 10.00 Fair CLR 79 64.9 84.9 79 62% 81 30.1 1018.8
28 17:52 N 5 10.00 Fair CLR 82.9 62.1 49% 84 30.1 1019.1
28 16:52 NW 7 10.00 A Few Clouds FEW050 84 60.1 44% 84 30.1 1019.0
28 15:52 NW 6 10.00 Fair CLR 84 60.1 44% 84 30.11 1019.4
28 14:52 N 6 10.00 Partly Cloudy SCT050 SCT065 84 59 43% 84 30.13 1019.9
28 13:52 Calm 10.00 A Few Clouds FEW055 82.9 61 48% 83 30.15 1020.5
28 12:52 W 5 10.00 Fair CLR 82.9 59 82.9 60.1 44% 83 30.15 1020.7
28 11:52 Calm 10.00 Fair CLR 79 61 54% 80 30.18 1021.5
28 10:52 Vrbl 3 10.00 Fair CLR 80.1 62.1 54% 81 30.18 1021.5
Date Time (cdt) Wind (mph) Vis. (mi.) Weather Sky Cond. Air Dwpt Max. Min. Relative Humidity Wind Chill (°F) Heat Index (°F) altimeter (in) sea level (mb) 1 hr 3 hr 6 hr
6 hour
Temperature (ºF) Pressure Precipitation (in)